Time;durP1;ratioP1;P1;durP2;ratioP2;P2;SDS_P1;SDS_P2;PMS_P1;PMS_P2;Temp;Humidity;BMP_temperature;BMP_pressure;BME280_temperature;BME280_humidity;BME280_pressure;Samples;Min_cycle;Max_cycle;Signal;HPM_P1;HPM_P2
2022/02/05 00:02:33;;;;;;;35.23;22.43;;;;;;;0.02;100.00;100882.91;4974395;28;20085;-84
2022/02/05 00:04:59;;;;;;;32.57;20.13;;;;;;;-0.04;100.00;100881.63;4972911;28;20035;-84
2022/02/05 00:07:27;;;;;;;32.17;20.40;;;;;;;-0.18;100.00;100885.47;4972688;28;20043;-81
2022/02/05 00:10:30;;;;;;;30.10;20.70;;;;;;;-0.53;100.00;100865.53;4972795;28;20497;-80
2022/02/05 00:15:51;;;;;;;33.70;21.70;;;;;;;-0.58;100.00;100881.13;4973973;28;20026;-84
2022/02/05 00:40:06;;;;;;;29.93;20.13;;;;;;;-0.24;100.00;100869.72;4972738;28;20046;-80
2022/02/05 00:42:42;;;;;;;38.00;21.93;;;;;;;-0.34;100.00;100844.31;4973437;28;20027;-79
2022/02/05 00:45:10;;;;;;;32.17;20.30;;;;;;;-0.15;100.00;100874.69;4972500;28;20069;-81
2022/02/05 00:47:39;;;;;;;32.80;21.77;;;;;;;-0.32;100.00;100870.72;4971915;28;20026;-83
2022/02/05 00:50:09;;;;;;;;;;;;;;;-0.37;100.00;100874.50;4972707;28;20034;-80
2022/02/05 00:52:35;;;;;;;32.35;18.77;;;;;;;-0.50;100.00;100875.06;4972158;28;19957;-79
2022/02/05 00:55:09;;;;;;;28.53;16.93;;;;;;;-0.51;100.00;100875.84;4973447;28;20043;-79
2022/02/05 00:57:45;;;;;;;26.87;18.33;;;;;;;-0.46;100.00;100869.53;4972076;28;20129;-82
2022/02/05 01:00:16;;;;;;;26.63;17.87;;;;;;;-0.45;100.00;100872.94;4971399;28;20069;-80
2022/02/05 01:02:41;;;;;;;26.27;17.50;;;;;;;-0.57;100.00;100888.88;4955758;28;20046;-73
2022/02/05 01:05:09;;;;;;;30.23;17.57;;;;;;;-0.60;100.00;100882.63;4973197;28;20387;-75
2022/02/05 01:07:35;;;;;;;28.00;17.67;;;;;;;-0.66;100.00;100873.72;4972968;28;20073;-68
2022/02/05 01:10:00;;;;;;;26.00;17.33;;;;;;;-0.91;100.00;100865.59;4973100;28;20448;-74
2022/02/05 01:12:29;;;;;;;25.77;16.80;;;;;;;-0.93;100.00;100876.38;4971600;28;20081;-76
2022/02/05 01:14:58;;;;;;;34.07;18.37;;;;;;;-1.29;100.00;100794.66;4972790;28;20038;-76
2022/02/05 01:17:30;;;;;;;30.85;21.23;;;;;;;-1.16;100.00;100833.00;4971634;28;20041;-79
2022/02/05 01:22:46;;;;;;;36.53;21.57;;;;;;;-1.10;100.00;100850.38;4950865;29;20101;-80
2022/02/05 01:25:14;;;;;;;44.60;26.73;;;;;;;-1.07;100.00;100830.41;4950739;29;20053;-78
2022/02/05 01:27:49;;;;;;;37.87;22.87;;;;;;;-0.77;100.00;100855.78;4950662;29;20040;-78
2022/02/05 01:32:51;;;;;;;39.70;24.10;;;;;;;-0.99;100.00;100856.41;4950902;29;20035;-79
2022/02/05 01:49:35;;;;;;;29.77;16.97;;;;;;;-1.33;100.00;100869.47;4936800;29;20110;-78
2022/02/05 01:52:09;;;;;;;27.50;17.60;;;;;;;-1.40;100.00;100853.59;4929316;29;20039;-81
2022/02/05 02:04:39;;;;;;;30.33;19.27;;;;;;;-1.25;100.00;100849.91;4939283;28;20058;-79
2022/02/05 02:05:15;;;;;;;34.73;19.30;;;;;;;-1.38;100.00;100825.13;4950835;28;20030;-79
2022/02/05 02:18:29;;;;;;;31.77;19.43;;;;;;;-1.54;100.00;100838.03;4949937;29;20066;-76
2022/02/05 02:24:02;;;;;;;31.70;19.47;;;;;;;-1.49;100.00;100841.00;4971189;28;20050;-81
2022/02/05 02:26:48;;;;;;;30.20;19.57;;;;;;;-1.54;100.00;100816.91;4970342;28;20401;-81
2022/02/05 02:29:29;;;;;;;28.63;19.47;;;;;;;-1.23;100.00;100835.75;4978950;28;20077;-75
2022/02/05 02:31:56;;;;;;;31.17;20.90;;;;;;;-1.25;100.00;100832.16;4971941;28;20030;-79
2022/02/05 02:34:27;;;;;;;29.93;17.93;;;;;;;-1.25;100.00;100856.63;4987827;28;20053;-81
2022/02/05 02:36:57;;;;;;;27.67;17.43;;;;;;;-1.44;100.00;100827.09;4989044;28;20037;-80
2022/02/05 02:39:37;;;;;;;31.07;17.00;;;;;;;-1.48;100.00;100828.47;4989451;28;20030;-80
2022/02/05 02:42:08;;;;;;;29.60;17.60;;;;;;;-1.47;100.00;100829.34;4989530;28;20464;-83
2022/02/05 02:44:33;;;;;;;28.83;16.53;;;;;;;-1.59;100.00;100781.03;4972726;28;20025;-81
2022/02/05 02:46:59;;;;;;;28.07;17.27;;;;;;;-1.14;100.00;100838.19;4989845;28;20405;-81
2022/02/05 02:57:52;;;;;;;24.53;16.67;;;;;;;-1.03;100.00;100839.16;4946453;28;20078;-79
2022/02/05 03:00:17;;;;;;;29.70;17.13;;;;;;;-1.10;100.00;100821.63;4948971;28;20035;-78
2022/02/05 03:02:43;;;;;;;25.57;17.40;;;;;;;-1.02;100.00;100864.63;4949129;28;20094;-79
2022/02/05 03:08:30;;;;;;;26.33;16.37;;;;;;;-1.79;100.00;100762.38;5027412;23;20082;-82
2022/02/05 03:10:55;;;;;;;30.10;18.93;;;;;;;-1.63;100.00;100782.38;4957556;28;20034;-78
2022/02/05 03:13:21;;;;;;;27.60;18.57;;;;;;;-1.28;100.00;100831.91;4963177;28;20031;-78
2022/02/05 03:15:48;;;;;;;28.63;18.70;;;;;;;-1.18;100.00;100844.63;4954943;28;20042;-80
2022/02/05 03:18:27;;;;;;;27.37;17.77;;;;;;;-1.23;100.00;100842.47;4954926;28;20023;-80
2022/02/05 03:20:52;;;;;;;28.90;18.30;;;;;;;-1.37;100.00;100790.53;4937522;28;20549;-79
2022/02/05 03:23:17;;;;;;;28.23;17.20;;;;;;;-1.22;100.00;100817.25;4954654;28;20066;-79
2022/02/05 03:25:43;;;;;;;27.50;16.90;;;;;;;-1.28;100.00;100816.72;4954987;28;20034;-79
2022/02/05 03:28:08;;;;;;;28.37;18.23;;;;;;;-1.15;100.00;100839.88;4954156;28;20027;-79
2022/02/05 03:30:34;;;;;;;31.47;18.57;;;;;;;-1.08;100.00;100841.28;4954513;28;20034;-80
2022/02/05 03:33:00;;;;;;;29.30;18.93;;;;;;;-1.08;100.00;100836.22;4954943;28;20121;-74
2022/02/05 03:35:26;;;;;;;29.37;19.50;;;;;;;-1.34;100.00;100778.16;4936356;29;20028;-74
2022/02/05 03:37:51;;;;;;;35.93;19.30;;;;;;;-1.47;100.00;100796.41;4958639;28;20027;-75
2022/02/05 03:40:17;;;;;;;29.53;18.77;;;;;;;-1.76;100.00;100793.78;4957244;28;20401;-76
2022/02/05 03:42:42;;;;;;;29.53;17.53;;;;;;;-1.74;100.00;100832.81;4974635;28;20022;-72
2022/02/05 03:45:11;;;;;;;27.70;18.90;;;;;;;-1.72;100.00;100834.72;4974865;28;20389;-73
2022/02/05 03:47:37;;;;;;;27.27;17.60;;;;;;;-1.73;100.00;100816.84;4974778;28;20030;-73
2022/02/05 03:50:04;;;;;;;26.07;16.60;;;;;;;-1.73;100.00;100816.84;4974610;28;20039;-77
2022/02/05 03:52:29;;;;;;;28.23;18.20;;;;;;;-1.82;100.00;100838.03;4974659;28;20058;-75
2022/02/05 03:54:55;;;;;;;29.47;17.87;;;;;;;-2.01;100.00;100794.06;4974371;28;20073;-76
2022/02/05 03:57:21;;;;;;;26.97;17.60;;;;;;;-1.86;100.00;100837.59;4974835;28;20489;-75
2022/02/05 03:59:46;;;;;;;24.47;16.13;;;;;;;-1.93;100.00;100830.19;4957323;28;20109;-76
2022/02/05 04:02:12;;;;;;;24.73;15.30;;;;;;;-2.14;100.00;100841.00;4974402;28;20035;-77
2022/02/05 04:04:37;;;;;;;24.50;14.13;;;;;;;-2.29;100.00;100829.47;4974461;28;20056;-77
2022/02/05 04:07:04;;;;;;;23.23;15.00;;;;;;;-2.55;100.00;100819.41;4974563;28;20505;-73
2022/02/05 04:09:41;;;;;;;37.70;21.77;;;;;;;-2.68;100.00;100847.66;4974098;28;20486;-76
2022/02/05 04:17:36;;;;;;;28.33;16.40;;;;;;;-2.99;100.00;100837.13;4974393;28;20524;-72
2022/02/05 04:20:11;;;;;;;26.70;16.27;;;;;;;-2.86;100.00;100850.22;4973965;28;20066;-77
2022/02/05 04:22:36;;;;;;;27.90;16.03;;;;;;;-2.90;100.00;100838.03;4974230;28;20126;-77
2022/02/05 04:25:02;;;;;;;37.67;20.23;;;;;;;-3.01;100.00;100831.06;4974006;28;20110;-77
2022/02/05 04:27:28;;;;;;;37.27;21.53;;;;;;;-2.95;100.00;100846.81;4973912;28;20030;-77
2022/02/05 04:29:54;;;;;;;39.43;22.93;;;;;;;-2.93;100.00;100836.13;4973830;28;20059;-73
2022/02/05 04:32:20;;;;;;;29.73;16.60;;;;;;;-2.83;100.00;100853.06;4956826;28;20026;-74
2022/02/05 04:34:45;;;;;;;28.00;16.87;;;;;;;-2.85;100.00;100844.44;4973781;28;20113;-75
2022/02/05 04:37:11;;;;;;;29.83;16.17;;;;;;;-2.87;100.00;100833.28;4973794;28;20045;-75
2022/02/05 04:39:41;;;;;;;31.27;16.17;;;;;;;-2.71;100.00;100854.97;4973757;28;20118;-75
2022/02/05 04:42:15;;;;;;;25.47;15.40;;;;;;;-2.77;100.00;100843.53;4973605;28;20761;-75
2022/02/05 04:50:09;;;;;;;27.80;15.60;;;;;;;-2.90;100.00;100802.69;4973591;28;20062;-75
2022/02/05 05:06:13;;;;;;;29.57;17.80;;;;;;;-2.49;100.00;100881.56;4952843;28;20107;-84
2022/02/05 05:21:42;;;;;;;30.03;19.37;;;;;;;-2.69;100.00;100868.63;4950612;28;20034;-81
2022/02/05 05:24:07;;;;;;;30.87;19.87;;;;;;;-3.06;100.00;100786.81;4949775;28;20023;-80
2022/02/05 05:26:37;;;;;;;33.43;19.67;;;;;;;-2.57;100.00;100857.16;4933673;28;20031;-82
2022/02/05 05:29:03;;;;;;;28.37;19.07;;;;;;;-2.49;100.00;100836.03;4949799;28;20027;-85
2022/02/05 05:31:28;;;;;;;34.17;20.97;;;;;;;-2.43;100.00;100853.41;4952226;28;20475;-79
2022/02/05 05:33:54;;;;;;;30.77;19.27;;;;;;;-2.69;100.00;100840.81;4971820;28;20019;-83
2022/02/05 05:36:19;;;;;;;33.30;18.97;;;;;;;-2.62;100.00;100851.69;4971705;28;20030;-82
2022/02/05 05:38:44;;;;;;;34.13;18.87;;;;;;;-2.78;100.00;100818.09;4970356;28;20037;-82
2022/02/05 05:41:10;;;;;;;30.07;18.40;;;;;;;-2.47;100.00;100871.56;4954023;28;20453;-81
2022/02/05 05:43:59;;;;;;;31.60;18.33;;;;;;;-2.83;100.00;100820.22;4953473;28;20402;-82
2022/02/05 05:51:37;;;;;;;32.80;19.57;;;;;;;-2.33;100.00;100894.03;4922746;29;20041;-84
2022/02/05 05:54:03;;;;;;;34.67;20.97;;;;;;;-2.48;100.00;100858.06;4930450;29;20122;-80
2022/02/05 05:56:28;;;;;;;33.63;20.80;;;;;;;-2.30;100.00;100885.84;4931196;29;20031;-80
2022/02/05 05:58:54;;;;;;;34.67;21.53;;;;;;;-2.36;100.00;100860.84;4929102;29;20516;-85
2022/02/05 06:01:19;;;;;;;37.27;22.70;;;;;;;-2.13;100.00;100907.66;4911619;29;20501;-86
2022/02/05 06:03:45;;;;;;;37.50;24.03;;;;;;;-2.36;100.00;100867.56;4911907;29;20039;-85
2022/02/05 06:06:11;;;;;;;38.60;23.27;;;;;;;-2.18;100.00;100875.97;4927195;29;20537;-84
2022/02/05 06:08:36;;;;;;;55.50;32.37;;;;;;;-1.96;100.00;100897.50;4926729;29;20044;-86
2022/02/05 06:11:02;;;;;;;49.10;29.80;;;;;;;-1.92;100.00;100880.94;4911842;29;20060;-81
2022/02/05 06:13:28;;;;;;;44.87;28.43;;;;;;;-1.88;100.00;100864.41;4924342;29;20047;-86
2022/02/05 06:15:55;;;;;;;47.93;29.33;;;;;;;-1.81;100.00;100887.91;4928993;29;20138;-83
2022/02/05 06:18:21;;;;;;;49.73;28.37;;;;;;;-1.67;100.00;100895.88;4910975;29;20046;-84
2022/02/05 06:20:46;;;;;;;60.50;40.47;;;;;;;-1.74;100.00;100901.13;4910668;29;20048;-83
2022/02/05 06:23:12;;;;;;;57.73;38.97;;;;;;;-1.69;100.00;100908.41;4926965;29;20040;-85
2022/02/05 06:25:41;;;;;;;49.03;28.80;;;;;;;-1.90;100.00;100860.84;4933329;28;20130;-85
2022/02/05 06:28:07;;;;;;;45.72;27.63;;;;;;;-1.85;100.00;100873.19;4950400;28;20406;-86
2022/02/05 06:30:32;;;;;;;56.93;35.07;;;;;;;-1.60;100.00;100900.75;4951622;28;20035;-84
2022/02/05 06:32:57;;;;;;;45.33;28.00;;;;;;;-1.61;100.00;100893.91;4947459;28;20035;-84
2022/02/05 06:35:23;;;;;;;40.63;25.73;;;;;;;-1.59;100.00;100906.72;4951736;28;20035;-85
2022/02/05 06:37:48;;;;;;;42.20;26.53;;;;;;;-1.53;100.00;100903.13;4950877;28;20039;-84
2022/02/05 06:40:14;;;;;;;35.97;23.10;;;;;;;-1.44;100.00;100899.66;4956217;28;20038;-85
2022/02/05 06:42:44;;;;;;;35.17;23.23;;;;;;;-1.25;100.00;100910.69;4955913;28;20117;-78
2022/02/05 06:45:10;;;;;;;37.23;22.37;;;;;;;-1.78;100.00;100796.19;4956280;28;20086;-85
2022/02/05 06:47:35;;;;;;;42.43;24.13;;;;;;;-1.06;100.00;100889.56;4954664;28;20031;-87
2022/02/05 06:50:03;;;;;;;36.97;22.23;;;;;;;-1.20;100.00;100843.59;4937916;28;20034;-87
2022/02/05 06:52:28;;;;;;;36.27;21.97;;;;;;;-0.86;100.00;100884.66;4954243;28;20546;-83
2022/02/05 06:54:54;;;;;;;36.07;23.27;;;;;;;-0.68;100.00;100900.59;4954288;28;20094;-85
2022/02/05 06:57:19;;;;;;;44.87;23.97;;;;;;;-0.56;100.00;100904.97;4938346;28;20035;-82
2022/02/05 06:59:44;;;;;;;40.00;23.60;;;;;;;-0.60;100.00;100869.94;4964916;28;20564;-86
2022/02/05 07:02:10;;;;;;;34.63;20.40;;;;;;;-0.41;100.00;100877.50;4940774;28;20039;-87
2022/02/05 07:04:36;;;;;;;34.13;20.43;;;;;;;-0.30;100.00;100874.25;4957388;28;20409;-86
2022/02/05 07:07:01;;;;;;;32.57;21.93;;;;;;;-0.05;100.00;100895.06;4955181;28;20039;-86
2022/02/05 07:09:33;;;;;;;32.97;23.00;;;;;;;0.14;100.00;100897.50;4954264;28;20534;-85
2022/02/05 07:12:00;;;;;;;38.57;21.90;;;;;;;0.08;100.00;100866.53;4937904;28;20063;-80
2022/02/05 07:14:33;;;;;;;37.30;22.13;;;;;;;0.37;100.00;100897.69;4950335;28;20082;-79
2022/02/05 07:20:16;;;;;;;38.40;21.37;;;;;;;0.54;100.00;100900.00;4989652;28;20085;-77
2022/02/05 07:31:00;;;;;;;39.30;24.83;;;;;;;0.91;100.00;100884.38;4951820;29;20091;-77
2022/02/05 07:33:25;;;;;;;28.60;17.87;;;;;;;0.88;100.00;100856.16;4952090;29;20038;-77
2022/02/05 07:35:50;;;;;;;24.93;17.30;;;;;;;1.04;100.00;100873.56;4951680;29;20051;-78
2022/02/05 07:38:16;;;;;;;25.63;16.17;;;;;;;1.11;99.90;100880.94;4951839;29;20047;-75
2022/02/05 07:40:42;;;;;;;24.63;15.53;;;;;;;1.20;100.00;100875.72;4952153;29;20082;-76
2022/02/05 07:43:07;;;;;;;26.30;16.67;;;;;;;1.34;100.00;100887.88;4951889;29;20043;-78
2022/02/05 07:45:33;;;;;;;25.03;17.53;;;;;;;1.37;100.00;100867.78;4949573;29;20547;-77
2022/02/05 07:47:58;;;;;;;24.43;16.33;;;;;;;1.38;100.00;100861.03;4951992;29;20039;-75
2022/02/05 07:50:24;;;;;;;24.13;16.30;;;;;;;1.43;100.00;100859.72;4947793;28;20490;-78
2022/02/05 07:52:51;;;;;;;26.70;16.37;;;;;;;1.54;100.00;100870.78;4949862;29;20137;-77
2022/02/05 07:55:16;;;;;;;23.53;15.87;;;;;;;1.42;100.00;100848.69;4950966;29;20046;-77
2022/02/05 07:57:41;;;;;;;26.97;16.53;;;;;;;1.19;100.00;100835.78;4917739;29;20435;-75
2022/02/05 08:00:08;;;;;;;24.33;16.27;;;;;;;1.56;100.00;100877.75;4914583;29;20039;-81
2022/02/05 08:02:34;;;;;;;25.87;17.00;;;;;;;1.62;99.00;100859.56;4937610;28;20051;-77
2022/02/05 08:04:59;;;;;;;25.27;16.73;;;;;;;1.76;99.53;100863.19;4953687;28;20039;-77
2022/02/05 08:07:25;;;;;;;27.00;16.87;;;;;;;1.92;98.19;100867.81;4956721;28;20101;-77
2022/02/05 08:12:21;;;;;;;26.40;16.07;;;;;;;1.99;96.04;100847.13;4953499;28;20031;-79
2022/02/05 08:14:50;;;;;;;22.93;15.53;;;;;;;1.97;95.96;100815.59;4953087;28;20171;-78
2022/02/05 08:17:25;;;;;;;23.47;16.40;;;;;;;2.13;96.51;100860.06;4953411;28;20449;-78
2022/02/05 08:19:51;;;;;;;24.67;15.80;;;;;;;2.25;97.00;100861.00;4953442;28;20043;-74
2022/02/05 08:22:17;;;;;;;24.80;17.17;;;;;;;2.27;96.29;100834.00;4953819;28;20046;-75
2022/02/05 08:24:43;;;;;;;26.48;17.02;;;;;;;2.45;95.22;100841.25;4954137;28;20034;-77
2022/02/05 08:27:09;;;;;;;27.05;16.80;;;;;;;2.19;97.43;100807.03;4953773;28;20035;-81
2022/02/05 08:29:40;;;;;;;27.15;17.40;;;;;;;2.43;96.17;100842.00;4953616;28;20448;-76
2022/02/05 08:32:06;;;;;;;28.15;18.30;;;;;;;2.36;96.13;100826.16;4953781;28;20034;-80
2022/02/05 08:34:32;;;;;;;23.60;17.85;;;;;;;2.15;95.47;100807.59;4951979;28;20031;-79
2022/02/05 08:36:58;;;;;;;30.45;19.05;;;;;;;2.28;96.71;100845.97;4953662;28;20513;-78
2022/02/05 08:39:24;;;;;;;31.55;19.40;;;;;;;2.33;96.27;100857.38;4969402;28;20499;-80
2022/02/05 08:41:50;;;;;;;29.03;18.70;;;;;;;2.09;95.96;100836.91;4965591;28;20118;-80
2022/02/05 08:44:15;;;;;;;26.43;16.87;;;;;;;2.00;97.14;100853.13;4952689;28;20062;-80
2022/02/05 08:46:42;;;;;;;25.13;17.67;;;;;;;2.24;97.81;100856.66;4952304;28;20486;-78
2022/02/05 08:49:07;;;;;;;25.77;16.55;;;;;;;2.39;96.82;100855.31;4952944;28;20047;-76
2022/02/05 08:51:33;;;;;;;26.85;18.23;;;;;;;2.56;96.58;100859.09;4979751;28;20034;-81
2022/02/05 08:54:00;;;;;;;29.30;18.27;;;;;;;2.43;96.43;100811.44;4992517;28;20034;-80
2022/02/05 08:56:25;;;;;;;28.92;17.55;;;;;;;2.91;96.72;100842.13;4986509;28;20064;-80
2022/02/05 08:58:54;;;;;;;25.80;16.83;;;;;;;2.89;95.24;100813.06;4992214;28;20022;-78
2022/02/05 09:01:25;;;;;;;25.83;17.90;;;;;;;2.56;95.23;100756.28;4981815;28;20070;-76
2022/02/05 09:04:10;;;;;;;27.23;17.77;;;;;;;3.08;94.95;100835.72;4983374;28;20069;-79
2022/02/05 09:06:40;;;;;;;29.60;19.58;;;;;;;3.17;94.99;100826.16;4961984;28;20053;-78
2022/02/05 09:16:39;;;;;;;29.25;19.40;;;;;;;3.45;93.93;100807.75;4979280;28;20035;-81
2022/02/05 09:19:06;;;;;;;27.63;17.75;;;;;;;3.71;91.26;100831.66;4968519;28;20062;-79
2022/02/05 09:21:32;;;;;;;29.17;19.23;;;;;;;3.68;91.33;100845.09;4952716;28;20026;-79
2022/02/05 09:24:00;;;;;;;29.00;18.75;;;;;;;3.80;91.22;100850.19;4952789;28;20027;-79
2022/02/05 09:26:26;;;;;;;29.42;19.58;;;;;;;3.98;90.87;100845.47;4952163;28;20035;-78
2022/02/05 09:29:02;;;;;;;26.17;17.65;;;;;;;4.13;88.33;100829.44;4951547;28;20027;-78
2022/02/05 09:31:32;;;;;;;31.02;19.48;;;;;;;4.25;90.70;100837.03;4952348;28;20027;-78
2022/02/05 09:33:58;;;;;;;;;;;;;;;4.52;87.65;100827.78;4903603;28;20035;-78
2022/02/05 09:36:26;;;;;;;26.25;18.40;;;;;;;4.68;87.05;100817.78;4952431;28;19914;-79
2022/02/05 09:38:54;;;;;;;29.10;18.20;;;;;;;4.63;85.03;100824.28;4952674;29;20393;-81
2022/02/05 09:41:20;;;;;;;29.05;18.08;;;;;;;4.89;83.99;100825.13;4953147;29;20078;-79
2022/02/05 09:43:47;;;;;;;33.17;20.05;;;;;;;5.05;83.38;100810.75;4962635;28;20432;-79
2022/02/05 09:46:14;;;;;;;22.85;14.93;;;;;;;4.91;80.06;100767.25;4972295;28;20030;-80
2022/02/05 09:48:39;;;;;;;26.52;16.42;;;;;;;5.05;79.39;100808.19;4967492;28;20090;-79
2022/02/05 09:51:08;;;;;;;25.50;15.40;;;;;;;4.40;77.35;100699.16;4953078;29;20031;-79
2022/02/05 09:53:35;;;;;;;26.20;15.25;;;;;;;5.13;77.88;100812.13;4952584;28;20477;-76
2022/02/05 09:56:04;;;;;;;23.13;14.75;;;;;;;4.66;77.89;100751.97;4945773;28;20716;-78
2022/02/05 09:58:35;;;;;;;21.57;15.53;;;;;;;4.73;77.73;100758.41;4978104;28;20386;-78
2022/02/05 10:01:27;;;;;;;25.48;15.43;;;;;;;5.02;78.18;100802.09;4991243;28;20062;-79
2022/02/05 10:03:54;;;;;;;27.85;16.40;;;;;;;5.12;79.74;100797.56;4990805;28;20037;-80
2022/02/05 10:06:25;;;;;;;26.48;17.90;;;;;;;5.18;78.60;100791.19;4991476;28;20038;-80
2022/02/05 10:09:14;;;;;;;44.38;27.70;;;;;;;5.57;76.89;100775.66;4957157;28;20055;-80
2022/02/05 10:11:56;;;;;;;29.15;20.58;;;;;;;5.93;75.92;100783.84;4956251;28;20039;-81
2022/02/05 10:14:30;;;;;;;22.67;15.32;;;;;;;6.08;74.70;100771.09;4970975;28;20058;-81
2022/02/05 10:16:58;;;;;;;22.30;15.52;;;;;;;5.96;72.82;100707.13;4971880;28;20493;-80
2022/02/05 10:19:43;;;;;;;22.35;15.27;;;;;;;6.19;73.26;100734.94;4958160;28;20039;-79
2022/02/05 10:22:09;;;;;;;24.88;14.23;;;;;;;6.25;73.33;100777.19;4952000;28;20031;-77
2022/02/05 10:24:48;;;;;;;20.75;14.60;;;;;;;6.28;72.62;100728.69;4952383;28;20053;-78
2022/02/05 10:27:26;;;;;;;18.83;13.27;;;;;;;6.66;71.42;100753.91;4953914;28;20135;-79
2022/02/05 10:30:05;;;;;;;18.38;11.48;;;;;;;6.91;67.82;100751.91;4953191;28;20039;-78
2022/02/05 10:32:31;;;;;;;20.13;12.48;;;;;;;6.72;66.94;100719.19;4953706;28;20034;-79
2022/02/05 10:35:05;;;;;;;20.23;13.88;;;;;;;6.82;67.97;100748.84;4951853;28;20042;-80
2022/02/05 10:37:42;;;;;;;25.67;15.93;;;;;;;6.75;67.84;100759.53;4949696;28;20129;-80
2022/02/05 10:40:11;;;;;;;23.30;14.93;;;;;;;6.86;68.46;100749.91;4951386;28;20409;-80
2022/02/05 10:45:31;;;;;;;21.60;13.48;;;;;;;7.16;69.23;100696.78;4950969;28;20082;-79
2022/02/05 10:47:59;;;;;;;21.83;15.25;;;;;;;7.36;71.37;100738.09;4951182;28;20032;-79
2022/02/05 10:50:31;;;;;;;25.55;16.15;;;;;;;7.54;72.20;100723.66;4950738;28;20047;-80
2022/02/05 10:53:18;;;;;;;23.90;14.77;;;;;;;7.31;72.69;100721.53;4949605;28;20031;-81
2022/02/05 10:56:18;;;;;;;23.75;15.88;;;;;;;7.37;72.69;100719.31;4950584;28;20035;-80
2022/02/05 11:07:06;;;;;;;21.63;14.77;;;;;;;8.02;69.35;100710.69;4951166;28;20921;-81
2022/02/05 11:09:32;;;;;;;18.20;12.57;;;;;;;8.02;67.88;100704.69;4951262;28;20399;-79
2022/02/05 11:20:02;;;;;;;17.58;12.70;;;;;;;8.21;69.90;100686.81;4950585;28;20163;-79
2022/02/05 11:22:34;;;;;;;15.88;10.95;;;;;;;8.39;68.61;100691.09;4952914;28;20050;-80
2022/02/05 11:25:03;;;;;;;17.15;12.07;;;;;;;8.51;69.60;100696.00;4956900;28;20487;-79
2022/02/05 11:27:28;;;;;;;20.40;12.85;;;;;;;8.59;68.51;100676.66;4954776;28;20035;-80
2022/02/05 11:30:43;;;;;;;17.58;13.40;;;;;;;8.56;67.64;100672.25;4932794;28;20032;-78
2022/02/05 11:33:29;;;;;;;19.90;12.88;;;;;;;8.34;68.64;100660.00;4934962;28;20095;-78
2022/02/05 11:38:36;;;;;;;18.98;11.93;;;;;;;8.33;69.80;100650.50;4932933;28;20027;-78
2022/02/05 11:41:04;;;;;;;17.67;12.85;;;;;;;8.39;70.12;100668.81;4932691;28;20028;-78
2022/02/05 11:43:31;;;;;;;19.77;11.98;;;;;;;8.33;70.55;100678.81;4932831;28;20106;-81
2022/02/05 11:46:18;;;;;;;18.75;13.32;;;;;;;8.51;73.21;100684.03;4933444;28;20502;-80
2022/02/05 11:48:50;;;;;;;18.17;12.65;;;;;;;8.69;71.00;100672.84;4933258;28;20050;-80
2022/02/05 11:51:20;;;;;;;18.20;11.43;;;;;;;8.79;73.21;100666.44;4935955;28;20526;-78
2022/02/05 11:53:58;;;;;;;15.88;11.15;;;;;;;8.76;71.58;100656.91;4931100;28;20066;-79
2022/02/05 11:57:06;;;;;;;16.27;10.60;;;;;;;8.65;72.62;100655.47;4936762;28;20039;-77
2022/02/05 12:00:02;;;;;;;15.30;10.85;;;;;;;8.54;73.02;100644.69;4932956;29;20050;-81
2022/02/05 12:02:44;;;;;;;15.55;10.68;;;;;;;8.70;71.08;100633.44;4913917;29;20423;-78
2022/02/05 12:05:20;;;;;;;16.40;11.02;;;;;;;8.86;70.12;100647.88;4913962;29;20044;-79
2022/02/05 12:08:00;;;;;;;14.90;10.88;;;;;;;8.70;71.63;100599.97;4917609;29;20083;-79
2022/02/05 12:10:41;;;;;;;15.43;11.27;;;;;;;9.04;72.44;100637.56;4917664;29;20024;-79
2022/02/05 12:13:36;;;;;;;14.60;9.82;;;;;;;8.98;72.11;100632.13;4912764;29;20521;-79
2022/02/05 12:16:11;;;;;;;13.77;8.50;;;;;;;8.95;70.90;100629.41;4913299;29;20036;-78
2022/02/05 12:19:08;;;;;;;13.73;9.32;;;;;;;8.86;71.03;100624.72;4913181;29;20044;-78
2022/02/05 12:21:55;;;;;;;16.48;10.00;;;;;;;8.92;72.75;100619.84;4913039;29;20040;-79
2022/02/05 12:24:37;;;;;;;13.75;9.35;;;;;;;9.22;70.53;100635.84;4912931;29;20039;-80
2022/02/05 12:27:31;;;;;;;10.52;7.70;;;;;;;9.24;71.49;100633.31;4912821;29;20036;-78
2022/02/05 12:30:39;;;;;;;12.75;8.90;;;;;;;9.28;71.07;100629.19;4913366;29;20067;-77
2022/02/05 12:33:07;;;;;;;13.18;9.55;;;;;;;9.30;73.80;100625.00;4913026;29;20042;-79
2022/02/05 12:35:34;;;;;;;13.68;9.15;;;;;;;9.29;72.29;100624.09;4912398;29;20055;-78
2022/02/05 12:38:02;;;;;;;13.52;9.45;;;;;;;9.28;72.94;100624.03;4912769;29;20035;-76
2022/02/05 12:40:28;;;;;;;13.77;9.18;;;;;;;9.23;72.09;100619.56;4950601;28;20067;-75
2022/02/05 12:42:55;;;;;;;12.57;9.10;;;;;;;9.29;71.69;100611.22;4953575;28;20046;-78
2022/02/05 12:45:35;;;;;;;13.95;8.52;;;;;;;9.20;71.58;100598.81;4953439;28;20039;-78
2022/02/05 12:48:05;;;;;;;14.40;9.13;;;;;;;8.95;73.37;100560.78;4953238;28;20079;-82
2022/02/05 12:50:31;;;;;;;14.18;9.10;;;;;;;9.24;73.11;100610.13;4953734;29;20031;-83
2022/02/05 12:53:00;;;;;;;13.30;10.10;;;;;;;9.28;73.35;100616.31;4953423;29;20114;-79
2022/02/05 12:55:27;;;;;;;15.00;10.05;;;;;;;9.36;71.27;100610.69;4953971;29;20023;-78
2022/02/05 12:57:59;;;;;;;14.15;10.13;;;;;;;9.23;72.66;100592.91;4959091;28;20374;-81
2022/02/05 13:00:25;;;;;;;13.05;9.73;;;;;;;9.36;73.58;100594.34;4970761;28;20043;-82
2022/02/05 13:02:50;;;;;;;15.30;9.13;;;;;;;9.44;72.01;100586.94;4957438;28;20566;-82
2022/02/05 13:05:16;;;;;;;14.13;9.02;;;;;;;9.44;71.66;100594.69;4959767;28;20125;-76
2022/02/05 13:07:43;;;;;;;12.32;9.15;;;;;;;9.41;71.09;100604.84;4972818;28;20057;-75
2022/02/05 13:10:08;;;;;;;14.02;9.82;;;;;;;9.32;71.07;100587.28;4956035;28;20047;-79
2022/02/05 13:12:40;;;;;;;14.48;9.45;;;;;;;9.35;72.32;100602.88;4952881;28;20038;-79
2022/02/05 13:36:12;;;;;;;13.15;8.82;;;;;;;9.44;71.54;100597.25;4952134;28;20078;-77
2022/02/05 13:41:06;;;;;;;10.73;7.78;;;;;;;9.51;72.03;100602.72;4953184;29;20066;-84
2022/02/05 13:43:43;;;;;;;20.77;11.13;;;;;;;9.52;71.86;100591.63;4952980;29;20066;-85
2022/02/05 13:46:18;;;;;;;14.75;8.07;;;;;;;9.62;69.40;100603.22;4952568;29;20568;-85
2022/02/05 13:48:44;;;;;;;14.32;7.78;;;;;;;9.66;67.83;100599.06;4951280;28;20122;-83
2022/02/05 13:51:10;;;;;;;15.18;7.80;;;;;;;9.59;69.60;100599.63;4953022;29;20121;-84
2022/02/05 13:53:59;;;;;;;15.27;8.63;;;;;;;9.68;69.27;100606.06;4964856;28;20026;-84
2022/02/05 13:56:33;;;;;;;10.73;7.93;;;;;;;9.53;71.13;100571.88;4993410;28;20034;-83
2022/02/05 13:58:59;;;;;;;10.32;6.72;;;;;;;9.67;71.51;100601.69;4991300;28;20030;-85
2022/02/05 14:01:35;;;;;;;10.68;7.15;;;;;;;9.66;71.56;100612.81;4973611;28;20096;-84
2022/02/05 14:04:14;;;;;;;10.77;7.18;;;;;;;9.69;72.00;100609.50;4945036;29;20115;-78
2022/02/05 14:06:59;;;;;;;9.25;6.95;;;;;;;9.73;70.59;100619.13;4929890;29;20122;-78
2022/02/05 14:09:27;;;;;;;9.65;6.95;;;;;;;9.69;70.49;100609.50;4930790;29;20103;-82
2022/02/05 14:11:54;;;;;;;14.07;7.65;;;;;;;9.74;70.95;100613.16;4913979;29;20076;-79
2022/02/05 14:14:30;;;;;;;11.55;8.27;;;;;;;9.67;70.86;100609.44;4930232;29;20046;-79
2022/02/05 14:16:56;;;;;;;14.80;8.75;;;;;;;9.45;71.80;100568.09;4930178;29;20541;-76
2022/02/05 14:19:25;;;;;;;13.32;7.88;;;;;;;9.69;73.37;100614.66;4930059;29;20047;-77
2022/02/05 14:22:27;;;;;;;13.38;7.82;;;;;;;9.43;74.51;100570.59;4916734;29;20047;-77
2022/02/05 14:25:06;;;;;;;9.82;7.15;;;;;;;9.56;73.24;100613.25;4914455;29;20031;-77
2022/02/05 14:27:32;;;;;;;11.30;6.93;;;;;;;9.46;73.96;100593.03;4930068;29;20494;-77
2022/02/05 14:30:08;;;;;;;9.77;6.72;;;;;;;9.43;74.44;100600.66;4929522;29;20630;-79
2022/02/05 14:35:10;;;;;;;10.65;7.38;;;;;;;9.22;75.66;100592.03;4939569;28;20035;-78
2022/02/05 14:43:07;;;;;;;10.45;6.68;;;;;;;9.22;76.09;100610.06;4954632;28;20082;-78